sensor_id;sensor_type;location;lat;lon;timestamp;temperature;humidity
21861;DHT22;11095;48.066;8.540;2023-05-02T00:02:04;7.00;99.90
21861;DHT22;11095;48.066;8.540;2023-05-02T00:04:29;7.00;99.90
21861;DHT22;11095;48.066;8.540;2023-05-02T00:06:55;6.90;99.90
21861;DHT22;11095;48.066;8.540;2023-05-02T00:09:21;6.90;99.90
21861;DHT22;11095;48.066;8.540;2023-05-02T00:11:46;6.90;99.90
21861;DHT22;11095;48.066;8.540;2023-05-02T00:14:12;6.90;99.90
21861;DHT22;11095;48.066;8.540;2023-05-02T00:16:38;6.90;99.90
21861;DHT22;11095;48.066;8.540;2023-05-02T00:19:03;6.90;99.90
21861;DHT22;11095;48.066;8.540;2023-05-02T00:21:29;6.90;99.90
21861;DHT22;11095;48.066;8.540;2023-05-02T00:23:55;6.90;99.90
21861;DHT22;11095;48.066;8.540;2023-05-02T00:26:22;6.90;99.90
21861;DHT22;11095;48.066;8.540;2023-05-02T00:28:47;6.80;99.90
21861;DHT22;11095;48.066;8.540;2023-05-02T00:31:13;6.90;99.90
21861;DHT22;11095;48.066;8.540;2023-05-02T00:33:39;6.90;99.90
21861;DHT22;11095;48.066;8.540;2023-05-02T00:36:15;6.90;99.90
21861;DHT22;11095;48.066;8.540;2023-05-02T00:38:41;6.90;99.90
21861;DHT22;11095;48.066;8.540;2023-05-02T00:41:06;6.90;99.90
21861;DHT22;11095;48.066;8.540;2023-05-02T00:43:32;6.90;99.90
21861;DHT22;11095;48.066;8.540;2023-05-02T00:45:58;7.00;99.90
21861;DHT22;11095;48.066;8.540;2023-05-02T00:48:24;7.00;99.90
21861;DHT22;11095;48.066;8.540;2023-05-02T00:50:50;6.90;99.90
21861;DHT22;11095;48.066;8.540;2023-05-02T00:53:16;6.90;99.90
21861;DHT22;11095;48.066;8.540;2023-05-02T00:55:42;6.90;99.90
21861;DHT22;11095;48.066;8.540;2023-05-02T00:58:11;6.80;99.90
21861;DHT22;11095;48.066;8.540;2023-05-02T01:06:38;6.70;99.90
21861;DHT22;11095;48.066;8.540;2023-05-02T01:11:58;6.60;99.90
21861;DHT22;11095;48.066;8.540;2023-05-02T01:14:25;6.60;99.90
21861;DHT22;11095;48.066;8.540;2023-05-02T01:16:53;6.60;99.90
21861;DHT22;11095;48.066;8.540;2023-05-02T01:19:42;6.60;99.90
21861;DHT22;11095;48.066;8.540;2023-05-02T01:22:10;6.60;99.90
21861;DHT22;11095;48.066;8.540;2023-05-02T01:27:21;6.50;99.90
21861;DHT22;11095;48.066;8.540;2023-05-02T01:29:49;6.50;99.90
21861;DHT22;11095;48.066;8.540;2023-05-02T01:32:16;6.50;99.90
21861;DHT22;11095;48.066;8.540;2023-05-02T01:34:45;6.60;99.90
21861;DHT22;11095;48.066;8.540;2023-05-02T01:37:12;6.60;99.90
21861;DHT22;11095;48.066;8.540;2023-05-02T01:39:39;6.60;99.90
21861;DHT22;11095;48.066;8.540;2023-05-02T01:42:05;6.60;99.90
21861;DHT22;11095;48.066;8.540;2023-05-02T01:44:31;6.60;99.90
21861;DHT22;11095;48.066;8.540;2023-05-02T01:46:59;6.60;99.90
21861;DHT22;11095;48.066;8.540;2023-05-02T01:49:28;6.60;99.90
21861;DHT22;11095;48.066;8.540;2023-05-02T01:52:02;6.60;99.90
21861;DHT22;11095;48.066;8.540;2023-05-02T01:54:30;6.50;99.90
21861;DHT22;11095;48.066;8.540;2023-05-02T01:56:58;6.50;99.90
21861;DHT22;11095;48.066;8.540;2023-05-02T01:59:27;6.50;99.90
21861;DHT22;11095;48.066;8.540;2023-05-02T02:01:55;6.50;99.90
21861;DHT22;11095;48.066;8.540;2023-05-02T02:04:22;6.40;99.90
21861;DHT22;11095;48.066;8.540;2023-05-02T02:06:54;6.50;99.90
21861;DHT22;11095;48.066;8.540;2023-05-02T02:09:22;6.50;99.90
21861;DHT22;11095;48.066;8.540;2023-05-02T02:14:33;6.40;99.90
21861;DHT22;11095;48.066;8.540;2023-05-02T02:17:01;6.30;99.90
21861;DHT22;11095;48.066;8.540;2023-05-02T02:19:29;6.30;99.90
21861;DHT22;11095;48.066;8.540;2023-05-02T02:21:57;6.30;99.90
21861;DHT22;11095;48.066;8.540;2023-05-02T02:24:23;6.20;99.90
21861;DHT22;11095;48.066;8.540;2023-05-02T02:26:50;6.20;99.90
21861;DHT22;11095;48.066;8.540;2023-05-02T02:29:16;6.20;99.90
21861;DHT22;11095;48.066;8.540;2023-05-02T02:31:42;6.10;99.90
21861;DHT22;11095;48.066;8.540;2023-05-02T02:34:07;6.10;99.90
21861;DHT22;11095;48.066;8.540;2023-05-02T02:44:25;6.10;99.90
21861;DHT22;11095;48.066;8.540;2023-05-02T02:47:24;6.10;99.90
21861;DHT22;11095;48.066;8.540;2023-05-02T02:50:05;6.00;99.90
21861;DHT22;11095;48.066;8.540;2023-05-02T02:52:54;5.90;99.90
21861;DHT22;11095;48.066;8.540;2023-05-02T02:55:42;5.90;99.90
21861;DHT22;11095;48.066;8.540;2023-05-02T02:58:32;5.80;99.90
21861;DHT22;11095;48.066;8.540;2023-05-02T03:01:03;5.80;99.90
21861;DHT22;11095;48.066;8.540;2023-05-02T03:03:31;5.70;99.90
21861;DHT22;11095;48.066;8.540;2023-05-02T03:05:58;5.70;99.90
21861;DHT22;11095;48.066;8.540;2023-05-02T03:08:24;5.60;99.90
21861;DHT22;11095;48.066;8.540;2023-05-02T03:10:50;5.60;99.90
21861;DHT22;11095;48.066;8.540;2023-05-02T03:13:16;5.50;99.90
21861;DHT22;11095;48.066;8.540;2023-05-02T03:18:16;5.40;99.90
21861;DHT22;11095;48.066;8.540;2023-05-02T03:20:42;5.30;99.90
21861;DHT22;11095;48.066;8.540;2023-05-02T03:23:08;5.40;99.90
21861;DHT22;11095;48.066;8.540;2023-05-02T03:25:34;5.40;99.90
21861;DHT22;11095;48.066;8.540;2023-05-02T03:27:59;5.30;99.90
21861;DHT22;11095;48.066;8.540;2023-05-02T03:30:25;5.30;99.90
21861;DHT22;11095;48.066;8.540;2023-05-02T03:32:51;5.20;99.90
21861;DHT22;11095;48.066;8.540;2023-05-02T03:35:16;5.20;99.90
21861;DHT22;11095;48.066;8.540;2023-05-02T03:37:43;5.20;99.90
21861;DHT22;11095;48.066;8.540;2023-05-02T03:40:09;5.20;99.90
21861;DHT22;11095;48.066;8.540;2023-05-02T03:42:34;5.10;99.90
21861;DHT22;11095;48.066;8.540;2023-05-02T03:45:07;5.10;99.90
21861;DHT22;11095;48.066;8.540;2023-05-02T03:47:33;5.10;99.90
21861;DHT22;11095;48.066;8.540;2023-05-02T03:49:58;5.10;99.90
21861;DHT22;11095;48.066;8.540;2023-05-02T03:52:24;5.10;99.90
21861;DHT22;11095;48.066;8.540;2023-05-02T03:54:50;5.10;99.90
21861;DHT22;11095;48.066;8.540;2023-05-02T03:57:16;5.00;99.90
21861;DHT22;11095;48.066;8.540;2023-05-02T03:59:42;5.00;99.90
21861;DHT22;11095;48.066;8.540;2023-05-02T04:02:10;5.00;99.90
21861;DHT22;11095;48.066;8.540;2023-05-02T04:04:36;4.90;99.90
21861;DHT22;11095;48.066;8.540;2023-05-02T04:07:02;4.90;99.90
21861;DHT22;11095;48.066;8.540;2023-05-02T04:09:29;4.90;99.90
21861;DHT22;11095;48.066;8.540;2023-05-02T04:11:54;4.90;99.90
21861;DHT22;11095;48.066;8.540;2023-05-02T04:14:20;4.90;99.90
21861;DHT22;11095;48.066;8.540;2023-05-02T04:16:50;4.90;99.90
21861;DHT22;11095;48.066;8.540;2023-05-02T04:19:16;4.90;99.90
21861;DHT22;11095;48.066;8.540;2023-05-02T04:21:43;4.90;99.90
21861;DHT22;11095;48.066;8.540;2023-05-02T04:24:09;5.00;99.90
21861;DHT22;11095;48.066;8.540;2023-05-02T04:26:35;5.10;99.90
21861;DHT22;11095;48.066;8.540;2023-05-02T04:29:01;5.10;99.90
21861;DHT22;11095;48.066;8.540;2023-05-02T04:31:27;5.30;99.90
21861;DHT22;11095;48.066;8.540;2023-05-02T04:33:52;5.30;99.90
21861;DHT22;11095;48.066;8.540;2023-05-02T04:36:18;5.30;99.90
21861;DHT22;11095;48.066;8.540;2023-05-02T04:38:44;5.40;99.90
21861;DHT22;11095;48.066;8.540;2023-05-02T04:41:10;5.40;99.90
21861;DHT22;11095;48.066;8.540;2023-05-02T04:43:36;5.50;99.90
21861;DHT22;11095;48.066;8.540;2023-05-02T04:46:02;5.50;99.90
21861;DHT22;11095;48.066;8.540;2023-05-02T04:48:28;5.60;99.90
21861;DHT22;11095;48.066;8.540;2023-05-02T04:50:53;5.60;99.90
21861;DHT22;11095;48.066;8.540;2023-05-02T04:53:21;5.60;99.90
21861;DHT22;11095;48.066;8.540;2023-05-02T04:55:48;5.60;99.90
21861;DHT22;11095;48.066;8.540;2023-05-02T04:58:13;5.60;99.90
21861;DHT22;11095;48.066;8.540;2023-05-02T05:00:40;5.70;99.90
21861;DHT22;11095;48.066;8.540;2023-05-02T05:03:05;5.80;99.90
21861;DHT22;11095;48.066;8.540;2023-05-02T05:05:32;5.80;99.90
21861;DHT22;11095;48.066;8.540;2023-05-02T05:07:57;5.90;99.90
21861;DHT22;11095;48.066;8.540;2023-05-02T05:10:23;6.00;99.90
21861;DHT22;11095;48.066;8.540;2023-05-02T05:12:49;6.00;99.90
21861;DHT22;11095;48.066;8.540;2023-05-02T05:15:15;6.10;99.90
21861;DHT22;11095;48.066;8.540;2023-05-02T05:17:41;6.20;99.90
21861;DHT22;11095;48.066;8.540;2023-05-02T05:20:07;6.40;99.90
21861;DHT22;11095;48.066;8.540;2023-05-02T05:22:39;6.50;99.90
21861;DHT22;11095;48.066;8.540;2023-05-02T05:25:06;6.60;99.90
21861;DHT22;11095;48.066;8.540;2023-05-02T05:27:34;6.80;99.90
21861;DHT22;11095;48.066;8.540;2023-05-02T05:29:59;6.90;99.90
21861;DHT22;11095;48.066;8.540;2023-05-02T05:32:25;7.00;99.90
21861;DHT22;11095;48.066;8.540;2023-05-02T05:34:51;7.10;99.90
21861;DHT22;11095;48.066;8.540;2023-05-02T05:37:18;7.30;99.90
21861;DHT22;11095;48.066;8.540;2023-05-02T05:39:44;7.50;99.90
21861;DHT22;11095;48.066;8.540;2023-05-02T05:42:09;7.80;99.90
21861;DHT22;11095;48.066;8.540;2023-05-02T05:44:35;8.10;99.90
21861;DHT22;11095;48.066;8.540;2023-05-02T05:47:01;8.30;99.90
21861;DHT22;11095;48.066;8.540;2023-05-02T05:49:27;8.40;99.90
21861;DHT22;11095;48.066;8.540;2023-05-02T05:51:52;8.50;99.90
21861;DHT22;11095;48.066;8.540;2023-05-02T05:54:18;8.60;99.90
21861;DHT22;11095;48.066;8.540;2023-05-02T05:56:44;8.60;99.90
21861;DHT22;11095;48.066;8.540;2023-05-02T05:59:10;8.70;99.90
21861;DHT22;11095;48.066;8.540;2023-05-02T06:01:35;8.70;99.90
21861;DHT22;11095;48.066;8.540;2023-05-02T06:04:02;8.80;99.90
21861;DHT22;11095;48.066;8.540;2023-05-02T06:06:29;9.00;99.90
21861;DHT22;11095;48.066;8.540;2023-05-02T06:08:56;9.20;99.90
21861;DHT22;11095;48.066;8.540;2023-05-02T06:11:22;9.50;99.90
21861;DHT22;11095;48.066;8.540;2023-05-02T06:13:52;9.70;99.90
21861;DHT22;11095;48.066;8.540;2023-05-02T06:16:18;10.00;99.90
21861;DHT22;11095;48.066;8.540;2023-05-02T06:18:44;10.40;99.90
21861;DHT22;11095;48.066;8.540;2023-05-02T06:21:10;10.60;99.90
21861;DHT22;11095;48.066;8.540;2023-05-02T06:23:36;10.70;99.90
21861;DHT22;11095;48.066;8.540;2023-05-02T06:26:03;10.70;99.90
21861;DHT22;11095;48.066;8.540;2023-05-02T06:28:29;10.60;99.90
21861;DHT22;11095;48.066;8.540;2023-05-02T06:30:56;10.40;99.90
21861;DHT22;11095;48.066;8.540;2023-05-02T06:33:23;10.30;99.90
21861;DHT22;11095;48.066;8.540;2023-05-02T06:35:51;10.30;99.90
21861;DHT22;11095;48.066;8.540;2023-05-02T06:38:17;10.20;99.90
21861;DHT22;11095;48.066;8.540;2023-05-02T06:40:43;10.30;99.90
21861;DHT22;11095;48.066;8.540;2023-05-02T06:43:10;10.30;99.90
21861;DHT22;11095;48.066;8.540;2023-05-02T06:45:36;10.30;99.90
21861;DHT22;11095;48.066;8.540;2023-05-02T06:48:01;10.30;99.90
21861;DHT22;11095;48.066;8.540;2023-05-02T06:50:28;10.40;99.90
21861;DHT22;11095;48.066;8.540;2023-05-02T06:52:53;10.40;99.90
21861;DHT22;11095;48.066;8.540;2023-05-02T06:55:19;10.50;99.90
21861;DHT22;11095;48.066;8.540;2023-05-02T06:57:45;10.50;99.90
21861;DHT22;11095;48.066;8.540;2023-05-02T07:00:11;10.60;99.90
21861;DHT22;11095;48.066;8.540;2023-05-02T07:02:37;10.70;99.90
21861;DHT22;11095;48.066;8.540;2023-05-02T07:05:03;11.00;99.90
21861;DHT22;11095;48.066;8.540;2023-05-02T07:07:29;11.80;99.90
21861;DHT22;11095;48.066;8.540;2023-05-02T07:09:54;13.30;99.90
21861;DHT22;11095;48.066;8.540;2023-05-02T07:12:20;14.40;99.90
21861;DHT22;11095;48.066;8.540;2023-05-02T07:14:46;14.80;99.90
21861;DHT22;11095;48.066;8.540;2023-05-02T07:17:12;14.80;99.90
21861;DHT22;11095;48.066;8.540;2023-05-02T07:19:37;13.70;99.90
21861;DHT22;11095;48.066;8.540;2023-05-02T07:22:03;13.30;99.90
21861;DHT22;11095;48.066;8.540;2023-05-02T07:24:29;13.40;99.90
21861;DHT22;11095;48.066;8.540;2023-05-02T07:26:54;14.10;99.90
21861;DHT22;11095;48.066;8.540;2023-05-02T07:29:20;15.90;99.90
21861;DHT22;11095;48.066;8.540;2023-05-02T07:31:45;16.90;99.90
21861;DHT22;11095;48.066;8.540;2023-05-02T07:34:11;18.40;99.90
21861;DHT22;11095;48.066;8.540;2023-05-02T07:36:37;20.60;99.90
21861;DHT22;11095;48.066;8.540;2023-05-02T07:39:03;21.70;99.90
21861;DHT22;11095;48.066;8.540;2023-05-02T07:41:29;19.10;99.90
21861;DHT22;11095;48.066;8.540;2023-05-02T07:43:54;18.50;99.90
21861;DHT22;11095;48.066;8.540;2023-05-02T07:46:22;16.20;99.90
21861;DHT22;11095;48.066;8.540;2023-05-02T07:48:48;15.10;99.90
21861;DHT22;11095;48.066;8.540;2023-05-02T07:51:13;16.00;99.90
21861;DHT22;11095;48.066;8.540;2023-05-02T07:53:39;16.60;99.90
21861;DHT22;11095;48.066;8.540;2023-05-02T07:56:06;15.90;99.90
21861;DHT22;11095;48.066;8.540;2023-05-02T07:58:35;15.70;99.90
21861;DHT22;11095;48.066;8.540;2023-05-02T08:01:04;13.90;99.90
21861;DHT22;11095;48.066;8.540;2023-05-02T08:03:30;14.60;99.90
21861;DHT22;11095;48.066;8.540;2023-05-02T08:05:56;16.60;99.90
21861;DHT22;11095;48.066;8.540;2023-05-02T08:08:21;17.90;99.90
21861;DHT22;11095;48.066;8.540;2023-05-02T08:10:47;18.50;99.90
21861;DHT22;11095;48.066;8.540;2023-05-02T08:13:16;17.80;99.90
21861;DHT22;11095;48.066;8.540;2023-05-02T08:15:41;17.60;99.90
21861;DHT22;11095;48.066;8.540;2023-05-02T08:18:07;16.90;99.90
21861;DHT22;11095;48.066;8.540;2023-05-02T08:20:33;16.70;99.90
21861;DHT22;11095;48.066;8.540;2023-05-02T08:22:58;15.80;99.90
21861;DHT22;11095;48.066;8.540;2023-05-02T08:25:24;16.10;99.90
21861;DHT22;11095;48.066;8.540;2023-05-02T08:27:49;16.60;99.90
21861;DHT22;11095;48.066;8.540;2023-05-02T08:30:15;17.40;99.90
21861;DHT22;11095;48.066;8.540;2023-05-02T08:32:41;17.70;99.90
21861;DHT22;11095;48.066;8.540;2023-05-02T08:35:07;17.30;99.90
21861;DHT22;11095;48.066;8.540;2023-05-02T08:37:33;16.30;99.90
21861;DHT22;11095;48.066;8.540;2023-05-02T08:39:59;16.00;99.90
21861;DHT22;11095;48.066;8.540;2023-05-02T08:42:25;15.90;99.90
21861;DHT22;11095;48.066;8.540;2023-05-02T08:44:51;14.80;99.90
21861;DHT22;11095;48.066;8.540;2023-05-02T08:47:17;15.70;99.90
21861;DHT22;11095;48.066;8.540;2023-05-02T08:49:44;16.90;99.90
21861;DHT22;11095;48.066;8.540;2023-05-02T08:52:11;16.20;99.90
21861;DHT22;11095;48.066;8.540;2023-05-02T08:54:38;15.20;99.90
21861;DHT22;11095;48.066;8.540;2023-05-02T08:57:04;14.30;99.90
21861;DHT22;11095;48.066;8.540;2023-05-02T08:59:30;15.10;99.90
21861;DHT22;11095;48.066;8.540;2023-05-02T09:02:05;15.70;99.90
21861;DHT22;11095;48.066;8.540;2023-05-02T09:04:40;16.00;99.90
21861;DHT22;11095;48.066;8.540;2023-05-02T09:07:06;14.80;99.90
21861;DHT22;11095;48.066;8.540;2023-05-02T09:09:33;14.50;99.90
21861;DHT22;11095;48.066;8.540;2023-05-02T09:11:58;14.70;99.90
21861;DHT22;11095;48.066;8.540;2023-05-02T09:14:24;14.80;99.90
21861;DHT22;11095;48.066;8.540;2023-05-02T09:16:57;14.80;99.90
21861;DHT22;11095;48.066;8.540;2023-05-02T09:19:25;14.80;99.90
21861;DHT22;11095;48.066;8.540;2023-05-02T09:21:51;14.20;99.90
21861;DHT22;11095;48.066;8.540;2023-05-02T09:24:21;13.70;99.90
21861;DHT22;11095;48.066;8.540;2023-05-02T09:27:01;13.90;99.90
21861;DHT22;11095;48.066;8.540;2023-05-02T09:29:28;14.30;99.90
21861;DHT22;11095;48.066;8.540;2023-05-02T09:32:03;14.90;99.90
21861;DHT22;11095;48.066;8.540;2023-05-02T09:34:29;15.20;99.90
21861;DHT22;11095;48.066;8.540;2023-05-02T09:36:56;15.60;99.90
21861;DHT22;11095;48.066;8.540;2023-05-02T09:39:27;15.40;99.90
21861;DHT22;11095;48.066;8.540;2023-05-02T09:41:54;14.70;99.90
21861;DHT22;11095;48.066;8.540;2023-05-02T09:44:21;14.40;99.90
21861;DHT22;11095;48.066;8.540;2023-05-02T09:46:53;12.80;99.90
21861;DHT22;11095;48.066;8.540;2023-05-02T09:49:25;12.70;99.90
21861;DHT22;11095;48.066;8.540;2023-05-02T09:52:10;13.00;99.90
21861;DHT22;11095;48.066;8.540;2023-05-02T09:54:36;13.10;99.90
21861;DHT22;11095;48.066;8.540;2023-05-02T09:57:02;12.70;99.90
21861;DHT22;11095;48.066;8.540;2023-05-02T09:59:28;13.00;99.90
21861;DHT22;11095;48.066;8.540;2023-05-02T10:01:55;13.20;99.90
21861;DHT22;11095;48.066;8.540;2023-05-02T10:04:21;13.50;99.90
21861;DHT22;11095;48.066;8.540;2023-05-02T10:06:49;13.40;99.90
21861;DHT22;11095;48.066;8.540;2023-05-02T10:09:15;13.30;99.90
21861;DHT22;11095;48.066;8.540;2023-05-02T10:11:43;13.20;99.90
21861;DHT22;11095;48.066;8.540;2023-05-02T10:14:10;12.80;99.90
21861;DHT22;11095;48.066;8.540;2023-05-02T10:16:50;12.90;99.90
21861;DHT22;11095;48.066;8.540;2023-05-02T10:19:26;12.70;99.90
21861;DHT22;11095;48.066;8.540;2023-05-02T10:21:54;12.40;99.90
21861;DHT22;11095;48.066;8.540;2023-05-02T10:24:20;12.60;99.90
21861;DHT22;11095;48.066;8.540;2023-05-02T10:26:47;13.00;99.90
21861;DHT22;11095;48.066;8.540;2023-05-02T10:29:12;13.30;99.90
21861;DHT22;11095;48.066;8.540;2023-05-02T10:31:38;13.70;99.90
21861;DHT22;11095;48.066;8.540;2023-05-02T10:34:08;13.40;99.90
21861;DHT22;11095;48.066;8.540;2023-05-02T10:36:35;13.80;99.90
21861;DHT22;11095;48.066;8.540;2023-05-02T10:39:02;14.00;99.90
21861;DHT22;11095;48.066;8.540;2023-05-02T10:41:30;13.80;99.90
21861;DHT22;11095;48.066;8.540;2023-05-02T10:43:56;13.90;99.90
21861;DHT22;11095;48.066;8.540;2023-05-02T10:46:35;14.10;99.90
21861;DHT22;11095;48.066;8.540;2023-05-02T10:49:12;13.80;99.90
21861;DHT22;11095;48.066;8.540;2023-05-02T10:51:39;13.70;99.90
21861;DHT22;11095;48.066;8.540;2023-05-02T10:54:22;13.90;99.90
21861;DHT22;11095;48.066;8.540;2023-05-02T10:59:40;14.90;99.90
21861;DHT22;11095;48.066;8.540;2023-05-02T11:05:05;15.00;99.90
21861;DHT22;11095;48.066;8.540;2023-05-02T11:07:33;14.60;99.90
21861;DHT22;11095;48.066;8.540;2023-05-02T11:12:51;15.30;99.90
21861;DHT22;11095;48.066;8.540;2023-05-02T11:18:01;16.10;99.90
21861;DHT22;11095;48.066;8.540;2023-05-02T11:20:28;15.60;99.90
21861;DHT22;11095;48.066;8.540;2023-05-02T11:22:55;14.90;99.90
21861;DHT22;11095;48.066;8.540;2023-05-02T11:25:33;14.60;99.90
21861;DHT22;11095;48.066;8.540;2023-05-02T11:28:00;14.50;99.90
21861;DHT22;11095;48.066;8.540;2023-05-02T11:30:44;14.40;99.90
21861;DHT22;11095;48.066;8.540;2023-05-02T11:33:14;14.20;99.90
21861;DHT22;11095;48.066;8.540;2023-05-02T11:35:42;13.70;99.90
21861;DHT22;11095;48.066;8.540;2023-05-02T11:38:11;13.60;99.90
21861;DHT22;11095;48.066;8.540;2023-05-02T11:40:36;13.50;99.90
21861;DHT22;11095;48.066;8.540;2023-05-02T11:43:23;12.90;99.90
21861;DHT22;11095;48.066;8.540;2023-05-02T11:45:51;13.20;99.90
21861;DHT22;11095;48.066;8.540;2023-05-02T11:48:18;13.50;99.90
21861;DHT22;11095;48.066;8.540;2023-05-02T11:50:49;13.30;99.90
21861;DHT22;11095;48.066;8.540;2023-05-02T11:53:20;13.20;99.90
21861;DHT22;11095;48.066;8.540;2023-05-02T11:55:51;13.10;99.90
21861;DHT22;11095;48.066;8.540;2023-05-02T11:58:23;13.10;99.90
21861;DHT22;11095;48.066;8.540;2023-05-02T12:00:50;13.30;99.90
21861;DHT22;11095;48.066;8.540;2023-05-02T12:03:32;13.60;99.90
21861;DHT22;11095;48.066;8.540;2023-05-02T12:06:15;13.90;99.90
21861;DHT22;11095;48.066;8.540;2023-05-02T12:08:43;13.70;99.90
21861;DHT22;11095;48.066;8.540;2023-05-02T12:11:12;13.80;99.90
21861;DHT22;11095;48.066;8.540;2023-05-02T12:13:49;14.30;99.90
21861;DHT22;11095;48.066;8.540;2023-05-02T12:16:15;14.70;99.90
21861;DHT22;11095;48.066;8.540;2023-05-02T12:18:41;15.10;99.90
21861;DHT22;11095;48.066;8.540;2023-05-02T12:21:07;14.80;99.90
21861;DHT22;11095;48.066;8.540;2023-05-02T12:23:33;14.60;99.90
21861;DHT22;11095;48.066;8.540;2023-05-02T12:26:14;14.40;99.90
21861;DHT22;11095;48.066;8.540;2023-05-02T12:28:48;14.40;99.90
21861;DHT22;11095;48.066;8.540;2023-05-02T12:31:14;14.70;99.90
21861;DHT22;11095;48.066;8.540;2023-05-02T12:33:44;14.90;99.90
21861;DHT22;11095;48.066;8.540;2023-05-02T12:36:12;14.60;99.90
21861;DHT22;11095;48.066;8.540;2023-05-02T12:38:38;14.70;99.90
21861;DHT22;11095;48.066;8.540;2023-05-02T12:41:04;14.60;99.90
21861;DHT22;11095;48.066;8.540;2023-05-02T12:43:45;14.40;99.90
21861;DHT22;11095;48.066;8.540;2023-05-02T12:46:11;13.90;99.90
21861;DHT22;11095;48.066;8.540;2023-05-02T12:48:37;13.40;99.90
21861;DHT22;11095;48.066;8.540;2023-05-02T12:51:02;13.20;99.90
21861;DHT22;11095;48.066;8.540;2023-05-02T12:53:42;13.10;99.90
21861;DHT22;11095;48.066;8.540;2023-05-02T12:56:09;13.30;99.90
21861;DHT22;11095;48.066;8.540;2023-05-02T13:01:07;13.60;99.90
21861;DHT22;11095;48.066;8.540;2023-05-02T13:03:34;13.90;99.90
21861;DHT22;11095;48.066;8.540;2023-05-02T13:05:59;14.20;99.90
21861;DHT22;11095;48.066;8.540;2023-05-02T13:08:25;13.90;99.90
21861;DHT22;11095;48.066;8.540;2023-05-02T13:10:51;13.80;99.90
21861;DHT22;11095;48.066;8.540;2023-05-02T13:13:17;13.70;99.90
21861;DHT22;11095;48.066;8.540;2023-05-02T13:15:42;13.60;99.90
21861;DHT22;11095;48.066;8.540;2023-05-02T13:18:08;13.80;99.90
21861;DHT22;11095;48.066;8.540;2023-05-02T13:20:33;13.90;99.90
21861;DHT22;11095;48.066;8.540;2023-05-02T13:22:59;14.40;99.90
21861;DHT22;11095;48.066;8.540;2023-05-02T13:25:25;15.00;99.90
21861;DHT22;11095;48.066;8.540;2023-05-02T13:27:51;15.10;99.90
21861;DHT22;11095;48.066;8.540;2023-05-02T13:30:16;15.50;99.90
21861;DHT22;11095;48.066;8.540;2023-05-02T13:32:42;15.50;99.90
21861;DHT22;11095;48.066;8.540;2023-05-02T13:35:08;15.20;99.90
21861;DHT22;11095;48.066;8.540;2023-05-02T13:37:34;15.00;99.90
21861;DHT22;11095;48.066;8.540;2023-05-02T13:40:00;14.50;99.90
21861;DHT22;11095;48.066;8.540;2023-05-02T13:42:26;13.90;99.90
21861;DHT22;11095;48.066;8.540;2023-05-02T13:44:52;14.00;99.90
21861;DHT22;11095;48.066;8.540;2023-05-02T13:47:17;14.20;99.90
21861;DHT22;11095;48.066;8.540;2023-05-02T13:49:43;14.30;99.90
21861;DHT22;11095;48.066;8.540;2023-05-02T13:52:08;14.70;99.90
21861;DHT22;11095;48.066;8.540;2023-05-02T13:54:34;14.80;99.90
21861;DHT22;11095;48.066;8.540;2023-05-02T13:57:00;15.10;99.90
21861;DHT22;11095;48.066;8.540;2023-05-02T13:59:27;15.40;99.90
21861;DHT22;11095;48.066;8.540;2023-05-02T14:01:52;15.80;99.90
21861;DHT22;11095;48.066;8.540;2023-05-02T14:04:18;16.20;99.90
21861;DHT22;11095;48.066;8.540;2023-05-02T14:06:43;16.70;99.90
21861;DHT22;11095;48.066;8.540;2023-05-02T14:09:09;17.10;99.90
21861;DHT22;11095;48.066;8.540;2023-05-02T14:11:34;17.40;99.90
21861;DHT22;11095;48.066;8.540;2023-05-02T14:14:00;17.60;99.90
21861;DHT22;11095;48.066;8.540;2023-05-02T14:16:26;17.80;99.90
21861;DHT22;11095;48.066;8.540;2023-05-02T14:18:52;17.90;99.90
21861;DHT22;11095;48.066;8.540;2023-05-02T14:21:18;17.90;99.90
21861;DHT22;11095;48.066;8.540;2023-05-02T14:23:43;16.80;99.90
21861;DHT22;11095;48.066;8.540;2023-05-02T14:26:09;16.50;99.90
21861;DHT22;11095;48.066;8.540;2023-05-02T14:28:35;16.10;99.90
21861;DHT22;11095;48.066;8.540;2023-05-02T14:31:01;15.30;99.90
21861;DHT22;11095;48.066;8.540;2023-05-02T14:33:27;15.30;99.90
21861;DHT22;11095;48.066;8.540;2023-05-02T14:35:52;15.20;99.90
21861;DHT22;11095;48.066;8.540;2023-05-02T14:38:18;14.90;99.90
21861;DHT22;11095;48.066;8.540;2023-05-02T14:40:44;14.40;99.90
21861;DHT22;11095;48.066;8.540;2023-05-02T14:43:11;14.10;99.90
21861;DHT22;11095;48.066;8.540;2023-05-02T14:45:36;14.20;99.90
21861;DHT22;11095;48.066;8.540;2023-05-02T14:48:02;14.20;99.90
21861;DHT22;11095;48.066;8.540;2023-05-02T14:50:28;13.60;99.90
21861;DHT22;11095;48.066;8.540;2023-05-02T14:52:53;13.30;99.90
21861;DHT22;11095;48.066;8.540;2023-05-02T14:55:19;13.30;99.90
21861;DHT22;11095;48.066;8.540;2023-05-02T14:57:44;13.50;99.90
21861;DHT22;11095;48.066;8.540;2023-05-02T15:00:10;14.00;99.90
21861;DHT22;11095;48.066;8.540;2023-05-02T15:02:36;14.20;99.90
21861;DHT22;11095;48.066;8.540;2023-05-02T15:05:03;14.40;99.90
21861;DHT22;11095;48.066;8.540;2023-05-02T15:07:30;14.70;99.90
21861;DHT22;11095;48.066;8.540;2023-05-02T15:09:55;14.40;99.90
21861;DHT22;11095;48.066;8.540;2023-05-02T15:12:21;14.40;99.90
21861;DHT22;11095;48.066;8.540;2023-05-02T15:14:47;13.90;99.90
21861;DHT22;11095;48.066;8.540;2023-05-02T15:17:12;14.00;99.90
21861;DHT22;11095;48.066;8.540;2023-05-02T15:19:38;14.10;99.90
21861;DHT22;11095;48.066;8.540;2023-05-02T15:22:03;14.40;99.90
21861;DHT22;11095;48.066;8.540;2023-05-02T15:24:29;14.10;99.90
21861;DHT22;11095;48.066;8.540;2023-05-02T15:26:55;14.00;99.90
21861;DHT22;11095;48.066;8.540;2023-05-02T15:29:20;13.90;99.90
21861;DHT22;11095;48.066;8.540;2023-05-02T15:31:46;14.00;99.90
21861;DHT22;11095;48.066;8.540;2023-05-02T15:34:12;13.90;99.90
21861;DHT22;11095;48.066;8.540;2023-05-02T15:36:37;13.90;99.90
21861;DHT22;11095;48.066;8.540;2023-05-02T15:39:04;14.10;99.90
21861;DHT22;11095;48.066;8.540;2023-05-02T15:41:31;14.40;99.90
21861;DHT22;11095;48.066;8.540;2023-05-02T15:43:58;14.30;99.90
21861;DHT22;11095;48.066;8.540;2023-05-02T15:46:23;14.40;99.90
21861;DHT22;11095;48.066;8.540;2023-05-02T15:48:49;14.30;99.90
21861;DHT22;11095;48.066;8.540;2023-05-02T15:51:15;14.10;99.90
21861;DHT22;11095;48.066;8.540;2023-05-02T15:53:41;13.80;99.90
21861;DHT22;11095;48.066;8.540;2023-05-02T15:56:12;13.90;99.90
21861;DHT22;11095;48.066;8.540;2023-05-02T15:58:37;14.20;99.90
21861;DHT22;11095;48.066;8.540;2023-05-02T16:01:03;14.20;99.90
21861;DHT22;11095;48.066;8.540;2023-05-02T16:03:29;14.40;99.90
21861;DHT22;11095;48.066;8.540;2023-05-02T16:06:01;14.30;99.90
21861;DHT22;11095;48.066;8.540;2023-05-02T16:08:29;14.30;99.90
21861;DHT22;11095;48.066;8.540;2023-05-02T16:10:55;14.30;99.90
21861;DHT22;11095;48.066;8.540;2023-05-02T16:13:22;14.30;99.90
21861;DHT22;11095;48.066;8.540;2023-05-02T16:15:47;14.50;99.90
21861;DHT22;11095;48.066;8.540;2023-05-02T16:18:14;14.50;99.90